Time;durP1;ratioP1;P1;durP2;ratioP2;P2;SDS_P1;SDS_P2;PMS_P1;PMS_P2;Temp;Humidity;BMP_temperature;BMP_pressure;BME280_temperature;BME280_humidity;BME280_pressure;Samples;Min_cycle;Max_cycle;Signal;HPM_P1;HPM_P2
2022/06/10 00:00:09;;;;;;;18.27;9.85;;;22.40;77.70;;;;;;5073188;28;20470;-77
2022/06/10 00:02:34;;;;;;;24.90;10.50;;;22.40;77.80;;;;;;5073098;28;20386;-79
2022/06/10 00:05:01;;;;;;;25.08;10.57;;;22.40;76.50;;;;;;5073181;28;20036;-78
2022/06/10 00:07:33;;;;;;;18.40;10.18;;;22.40;75.70;;;;;;5072571;28;20035;-78
2022/06/10 00:10:01;;;;;;;16.20;10.25;;;22.40;76.00;;;;;;5072574;28;20531;-78
2022/06/10 00:12:26;;;;;;;18.00;11.00;;;22.40;75.70;;;;;;5072858;28;20481;-78
2022/06/10 00:14:52;;;;;;;21.40;10.45;;;22.40;75.20;;;;;;5072751;28;20031;-78
2022/06/10 00:17:18;;;;;;;12.68;9.93;;;22.30;75.10;;;;;;5072497;28;20367;-77
2022/06/10 00:19:44;;;;;;;17.35;10.05;;;22.30;75.10;;;;;;5072595;28;20130;-78
2022/06/10 00:22:10;;;;;;;25.30;10.85;;;22.30;74.90;;;;;;5072320;28;20141;-80
2022/06/10 00:24:35;;;;;;;11.88;9.70;;;22.30;75.50;;;;;;5071987;28;20140;-78
2022/06/10 00:27:01;;;;;;;19.02;11.48;;;22.20;75.80;;;;;;5071979;28;20567;-77
2022/06/10 00:29:27;;;;;;;13.88;9.68;;;22.20;75.40;;;;;;5072133;28;20021;-77
2022/06/10 00:31:53;;;;;;;17.42;10.68;;;22.20;75.20;;;;;;5087862;28;20031;-79
2022/06/10 00:34:19;;;;;;;16.15;10.18;;;22.20;75.20;;;;;;5053844;28;20074;-77
2022/06/10 00:36:45;;;;;;;13.60;10.70;;;22.20;74.70;;;;;;5072040;28;20100;-79
2022/06/10 00:39:11;;;;;;;15.48;10.45;;;22.20;74.50;;;;;;5071989;28;20028;-79
2022/06/10 00:41:41;;;;;;;12.80;10.02;;;22.20;74.40;;;;;;5071779;28;20132;-78
2022/06/10 00:44:33;;;;;;;13.50;9.18;;;22.20;74.50;;;;;;5071987;28;20024;-79
2022/06/10 00:47:01;;;;;;;14.43;9.80;;;22.20;74.50;;;;;;5071879;28;20044;-79
2022/06/10 00:49:28;;;;;;;12.55;9.95;;;22.10;74.80;;;;;;5072287;28;20040;-78
2022/06/10 00:51:55;;;;;;;20.58;10.57;;;22.10;75.00;;;;;;5072117;28;20100;-79
2022/06/10 00:54:41;;;;;;;13.52;10.20;;;22.10;75.00;;;;;;5071926;28;20041;-79
2022/06/10 00:57:14;;;;;;;14.38;10.70;;;22.10;75.00;;;;;;5071894;28;20374;-78
2022/06/10 00:59:59;;;;;;;16.80;10.45;;;22.10;75.00;;;;;;5087449;28;20111;-79
2022/06/10 01:02:30;;;;;;;16.15;10.55;;;22.10;75.10;;;;;;5071466;28;20020;-78
2022/06/10 01:05:00;;;;;;;12.10;10.27;;;22.10;75.20;;;;;;5071532;28;20020;-78
2022/06/10 01:07:35;;;;;;;16.88;10.77;;;22.10;75.20;;;;;;5071155;28;20043;-78
2022/06/10 01:10:04;;;;;;;13.43;9.65;;;22.00;75.20;;;;;;5071596;28;20016;-77
2022/06/10 01:12:51;;;;;;;16.60;11.15;;;22.00;75.20;;;;;;5086879;28;20030;-78
2022/06/10 01:15:45;;;;;;;12.98;10.60;;;22.00;75.30;;;;;;5053710;28;20027;-78
2022/06/10 01:18:32;;;;;;;12.70;8.82;;;22.00;75.10;;;;;;5071157;28;20056;-78
2022/06/10 01:21:35;;;;;;;17.98;9.80;;;22.00;75.00;;;;;;5071314;28;20475;-80
2022/06/10 01:24:18;;;;;;;12.02;8.75;;;22.00;74.60;;;;;;5071387;28;20382;-79
2022/06/10 01:30:04;;;;;;;15.70;8.00;;;22.00;74.40;;;;;;5071660;28;20055;-76
2022/06/10 01:32:48;;;;;;;12.18;7.85;;;22.00;74.80;;;;;;5071179;28;20028;-78
2022/06/10 01:35:21;;;;;;;15.27;7.15;;;21.90;75.40;;;;;;5066076;28;20096;-78
2022/06/10 01:38:13;;;;;;;9.70;7.05;;;21.80;75.80;;;;;;5071375;28;20021;-77
2022/06/10 01:41:04;;;;;;;8.10;7.30;;;21.80;76.00;;;;;;5066591;28;20043;-77
2022/06/10 01:43:48;;;;;;;11.60;8.68;;;21.80;76.50;;;;;;5074259;28;20024;-78
2022/06/10 01:46:20;;;;;;;11.95;7.95;;;;;;;;;;5071491;28;20028;-77
2022/06/10 01:49:04;;;;;;;9.20;7.72;;;21.50;77.30;;;;;;5053022;28;20039;-76
2022/06/10 01:51:58;;;;;;;8.10;7.30;;;21.50;78.40;;;;;;5071217;28;20033;-78
2022/06/10 01:54:31;;;;;;;7.50;6.53;;;21.50;78.60;;;;;;5057570;28;20021;-78
2022/06/10 01:57:02;;;;;;;8.25;7.00;;;21.50;78.20;;;;;;5071135;28;20030;-77
2022/06/10 01:59:37;;;;;;;11.82;7.22;;;21.50;78.50;;;;;;5070925;28;20017;-78
2022/06/10 02:02:09;;;;;;;8.75;7.25;;;21.50;78.50;;;;;;5071126;28;20039;-79
2022/06/10 02:04:41;;;;;;;9.85;7.47;;;21.60;78.70;;;;;;5052773;28;20035;-77
2022/06/10 02:07:24;;;;;;;10.65;7.32;;;21.70;78.50;;;;;;5063979;28;20405;-78
2022/06/10 02:10:05;;;;;;;9.90;6.15;;;21.80;77.90;;;;;;5070895;28;20027;-79
2022/06/10 02:12:36;;;;;;;7.68;6.85;;;21.80;77.80;;;;;;5070945;28;20028;-79
2022/06/10 02:15:07;;;;;;;6.85;6.22;;;21.90;77.80;;;;;;5070833;28;20099;-77
2022/06/10 02:17:45;;;;;;;9.27;6.85;;;21.90;78.20;;;;;;5070897;28;20490;-77
2022/06/10 02:20:17;;;;;;;8.32;6.95;;;21.90;77.30;;;;;;5070935;28;20027;-77
2022/06/10 02:22:46;;;;;;;8.05;6.30;;;21.90;77.40;;;;;;5070846;28;20048;-78
2022/06/10 02:25:18;;;;;;;9.00;5.82;;;21.90;78.00;;;;;;5070892;28;20502;-77
2022/06/10 02:27:49;;;;;;;7.25;6.55;;;22.00;77.50;;;;;;5070656;28;20033;-77
2022/06/10 02:30:20;;;;;;;7.50;6.28;;;22.00;77.60;;;;;;5052667;28;20016;-78
2022/06/10 02:32:47;;;;;;;8.60;7.40;;;22.00;77.70;;;;;;5055916;28;20124;-78
2022/06/10 02:35:15;;;;;;;8.00;6.63;;;22.10;77.70;;;;;;5074680;28;20052;-77
2022/06/10 02:37:50;;;;;;;8.63;6.38;;;22.10;77.60;;;;;;5075164;28;20108;-77
2022/06/10 02:40:52;;;;;;;9.05;7.07;;;22.20;77.70;;;;;;5074503;28;20052;-78
2022/06/10 02:43:45;;;;;;;7.18;6.35;;;22.20;77.60;;;;;;5075753;28;20031;-78
2022/06/10 02:46:29;;;;;;;9.80;7.68;;;22.10;77.50;;;;;;5056431;28;20068;-77
2022/06/10 02:49:00;;;;;;;17.00;8.27;;;22.10;77.60;;;;;;5078164;28;20359;-78
2022/06/10 02:51:28;;;;;;;12.63;7.97;;;22.10;79.00;;;;;;5077111;28;20076;-78
2022/06/10 02:53:54;;;;;;;11.35;8.18;;;22.20;78.80;;;;;;5075001;28;20076;-78
2022/06/10 02:56:24;;;;;;;9.27;7.38;;;22.20;78.50;;;;;;5075576;28;20048;-77
2022/06/10 03:01:47;;;;;;;8.77;7.78;;;22.10;78.90;;;;;;5074480;28;20030;-79
2022/06/10 03:04:13;;;;;;;9.90;8.95;;;22.10;79.10;;;;;;5055764;28;20020;-77
2022/06/10 03:06:51;;;;;;;9.90;8.13;;;22.10;79.50;;;;;;5073998;28;20074;-78
2022/06/10 03:09:30;;;;;;;11.00;8.43;;;22.30;80.10;;;;;;5073831;28;20039;-78
2022/06/10 03:12:25;;;;;;;10.38;8.98;;;22.50;79.30;;;;;;5074190;28;20021;-80
2022/06/10 03:15:30;;;;;;;11.90;8.57;;;22.70;78.80;;;;;;5060802;28;20040;-78
2022/06/10 03:18:32;;;;;;;10.10;9.02;;;22.80;78.30;;;;;;5073609;28;20025;-78
2022/06/10 03:21:01;;;;;;;11.85;8.07;;;22.80;77.90;;;;;;5065407;28;20040;-78
2022/06/10 03:23:42;;;;;;;8.73;7.93;;;22.80;77.90;;;;;;5073872;28;20025;-78
2022/06/10 03:26:20;;;;;;;9.45;8.52;;;22.80;77.50;;;;;;5073423;28;20020;-78
2022/06/10 03:29:01;;;;;;;13.30;8.35;;;22.70;77.50;;;;;;5073417;28;20424;-77
2022/06/10 03:31:37;;;;;;;9.15;8.25;;;22.60;77.90;;;;;;5073700;28;20025;-77
2022/06/10 03:34:14;;;;;;;10.77;9.30;;;22.60;78.30;;;;;;5060443;28;20039;-78
2022/06/10 03:36:40;;;;;;;;;;;22.60;78.50;;;;;;5089571;28;20043;-79
2022/06/10 03:39:07;;;;;;;9.60;8.70;;;22.60;77.60;;;;;;5073797;28;19969;-77
2022/06/10 03:41:38;;;;;;;9.77;8.80;;;22.50;78.20;;;;;;5071586;28;20029;-78
2022/06/10 03:44:16;;;;;;;9.93;8.93;;;22.50;78.30;;;;;;5054713;28;20024;-80
2022/06/10 03:46:47;;;;;;;10.85;9.25;;;22.50;78.30;;;;;;5076519;28;20036;-78
2022/06/10 03:49:15;;;;;;;10.85;9.10;;;22.50;78.40;;;;;;5074992;28;20024;-80
2022/06/10 03:51:42;;;;;;;12.00;9.20;;;22.40;78.20;;;;;;5073468;28;20035;-77
2022/06/10 03:54:19;;;;;;;9.43;8.50;;;22.50;78.30;;;;;;5088326;28;20025;-78
2022/06/10 03:56:46;;;;;;;11.73;8.98;;;22.40;78.30;;;;;;5073138;28;20021;-79
2022/06/10 03:59:12;;;;;;;11.38;9.35;;;22.20;78.80;;;;;;5073050;28;20032;-79
2022/06/10 04:01:38;;;;;;;11.10;9.70;;;22.30;79.30;;;;;;5072880;28;20050;-78
2022/06/10 04:04:04;;;;;;;11.43;10.20;;;22.30;79.10;;;;;;5072735;28;20071;-78
2022/06/10 04:06:31;;;;;;;13.32;10.48;;;22.30;79.30;;;;;;5054584;28;20090;-80
2022/06/10 04:08:57;;;;;;;10.63;9.52;;;22.40;79.00;;;;;;5072872;28;20104;-79
2022/06/10 04:11:23;;;;;;;16.17;9.95;;;22.50;78.60;;;;;;5043827;28;20036;-78
2022/06/10 04:13:49;;;;;;;12.23;10.18;;;22.50;78.60;;;;;;5072933;28;20020;-78
2022/06/10 04:16:15;;;;;;;13.25;8.80;;;22.50;78.60;;;;;;5072746;28;20452;-80
2022/06/10 04:18:40;;;;;;;16.20;9.82;;;22.60;78.60;;;;;;5073065;28;20017;-77
2022/06/10 04:21:06;;;;;;;10.25;9.35;;;22.60;78.50;;;;;;5073350;28;20048;-77
2022/06/10 04:23:32;;;;;;;11.68;9.57;;;22.70;78.00;;;;;;5073282;28;20025;-78
2022/06/10 04:25:58;;;;;;;10.68;9.55;;;22.80;77.90;;;;;;5072667;28;20051;-79
2022/06/10 04:28:25;;;;;;;11.75;9.05;;;22.90;77.70;;;;;;5072307;28;20025;-77
2022/06/10 04:30:52;;;;;;;11.77;10.55;;;23.10;77.30;;;;;;5072672;28;20028;-80
2022/06/10 04:33:19;;;;;;;14.32;10.18;;;23.30;76.50;;;;;;5087258;28;20078;-78
2022/06/10 04:35:47;;;;;;;12.77;8.93;;;23.50;76.20;;;;;;5072131;28;20056;-78
2022/06/10 04:38:15;;;;;;;12.77;10.00;;;23.70;75.40;;;;;;5072213;28;20016;-80
2022/06/10 04:40:41;;;;;;;12.95;9.38;;;23.70;74.80;;;;;;5053260;28;20050;-77
2022/06/10 04:43:08;;;;;;;11.47;8.90;;;23.60;74.30;;;;;;5071861;28;20028;-78
2022/06/10 04:45:39;;;;;;;9.85;8.68;;;23.50;74.10;;;;;;5071674;28;20032;-78
2022/06/10 04:48:06;;;;;;;11.63;9.02;;;23.30;74.90;;;;;;5072152;28;20437;-81
2022/06/10 04:50:31;;;;;;;10.90;9.77;;;23.40;75.20;;;;;;5087491;28;20037;-78
2022/06/10 04:52:58;;;;;;;10.90;9.48;;;23.60;74.50;;;;;;5072424;28;20492;-79
2022/06/10 04:55:25;;;;;;;11.38;10.15;;;23.60;74.90;;;;;;5070993;28;20017;-76
2022/06/10 04:57:54;;;;;;;9.95;8.98;;;23.60;74.90;;;;;;5072009;28;20124;-78
2022/06/10 05:00:25;;;;;;;10.50;9.60;;;23.70;74.50;;;;;;5071537;28;20021;-77
2022/06/10 05:02:51;;;;;;;10.25;8.77;;;23.80;74.30;;;;;;5071669;28;20129;-77
2022/06/10 05:05:17;;;;;;;10.70;9.70;;;24.00;73.30;;;;;;5071660;28;20028;-78
2022/06/10 05:07:43;;;;;;;12.32;9.82;;;24.10;72.30;;;;;;5071708;28;20077;-79
2022/06/10 05:10:11;;;;;;;11.70;10.50;;;24.30;71.10;;;;;;5071756;28;20027;-79
2022/06/10 05:12:37;;;;;;;11.10;10.10;;;24.70;70.60;;;;;;5051673;28;20028;-77
2022/06/10 05:15:03;;;;;;;9.77;8.73;;;25.40;68.90;;;;;;5071726;28;20021;-77
2022/06/10 05:17:29;;;;;;;9.02;8.07;;;26.10;65.90;;;;;;5071293;28;20052;-77
2022/06/10 05:19:55;;;;;;;9.27;8.30;;;26.60;64.00;;;;;;5071542;28;20032;-79
2022/06/10 05:22:21;;;;;;;8.57;7.78;;;27.20;61.30;;;;;;5071543;28;20028;-78
2022/06/10 05:24:47;;;;;;;9.75;7.78;;;27.90;59.10;;;;;;5071409;28;20028;-79
2022/06/10 05:27:13;;;;;;;9.25;8.35;;;;;;;;;;5071772;28;20481;-78
2022/06/10 05:29:39;;;;;;;11.00;7.70;;;28.70;56.20;;;;;;5071787;28;20028;-79
2022/06/10 05:32:05;;;;;;;10.32;8.40;;;29.10;55.60;;;;;;5071868;28;20028;-79
2022/06/10 05:34:46;;;;;;;9.13;8.32;;;29.80;54.10;;;;;;5071587;28;20016;-79
2022/06/10 05:37:18;;;;;;;8.80;7.97;;;30.20;52.80;;;;;;5086608;28;20394;-81
2022/06/10 05:39:44;;;;;;;9.73;7.97;;;30.40;51.90;;;;;;5071404;28;20024;-78
2022/06/10 05:42:11;;;;;;;9.73;8.80;;;30.20;51.70;;;;;;5068935;28;20389;-79
2022/06/10 05:44:43;;;;;;;10.25;9.25;;;30.00;52.20;;;;;;5070938;28;20147;-78
2022/06/10 05:47:19;;;;;;;11.68;8.77;;;30.10;52.20;;;;;;5071535;28;20033;-79
2022/06/10 05:49:47;;;;;;;9.27;8.55;;;30.40;51.70;;;;;;5073220;28;20032;-80
2022/06/10 05:52:16;;;;;;;10.43;9.43;;;29.70;52.20;;;;;;5076191;28;20042;-77
2022/06/10 05:54:44;;;;;;;9.32;8.52;;;29.10;53.50;;;;;;5072096;28;20025;-80
2022/06/10 05:57:10;;;;;;;11.98;9.65;;;28.60;54.80;;;;;;5071692;28;20029;-79
2022/06/10 05:59:36;;;;;;;10.45;9.48;;;28.10;55.90;;;;;;5072160;28;20040;-81
2022/06/10 06:02:04;;;;;;;12.55;9.48;;;28.40;57.20;;;;;;5073298;28;20042;-79
2022/06/10 06:04:30;;;;;;;10.32;9.27;;;29.40;55.30;;;;;;5073608;28;20021;-79
2022/06/10 06:06:56;;;;;;;40.15;28.15;;;30.50;53.70;;;;;;5075600;28;20110;-79
2022/06/10 06:09:22;;;;;;;9.98;8.98;;;31.30;52.10;;;;;;5059078;28;20017;-79
2022/06/10 06:11:50;;;;;;;13.03;10.70;;;32.30;49.60;;;;;;5076741;28;20039;-80
2022/06/10 06:14:18;;;;;;;13.45;9.15;;;33.50;47.80;;;;;;5075244;28;20023;-81
2022/06/10 06:16:51;;;;;;;9.65;8.52;;;34.60;45.60;;;;;;5075281;28;20367;-78
2022/06/10 06:19:18;;;;;;;9.75;8.75;;;35.40;44.30;;;;;;5089632;28;20113;-79
2022/06/10 06:21:44;;;;;;;8.82;7.70;;;36.00;43.40;;;;;;5074884;28;20027;-80
2022/06/10 06:24:09;;;;;;;8.80;7.70;;;35.80;42.10;;;;;;5056197;28;20017;-79
2022/06/10 06:26:35;;;;;;;10.93;8.50;;;35.20;42.30;;;;;;5074464;28;20343;-80
2022/06/10 06:29:01;;;;;;;8.60;7.90;;;34.10;43.50;;;;;;5074785;28;20577;-80
2022/06/10 06:31:27;;;;;;;8.83;7.87;;;33.50;44.90;;;;;;5074581;28;20508;-81
2022/06/10 06:33:53;;;;;;;11.50;7.97;;;34.00;44.30;;;;;;5073930;28;20269;-83
2022/06/10 06:36:22;;;;;;;7.70;7.00;;;35.00;43.40;;;;;;5053463;28;20099;-81
2022/06/10 06:38:48;;;;;;;8.20;7.50;;;36.40;41.80;;;;;;5056260;28;20385;-83
2022/06/10 06:41:15;;;;;;;7.47;6.88;;;35.80;40.60;;;;;;5075349;28;20029;-82
2022/06/10 06:43:42;;;;;;;8.48;7.47;;;34.90;42.50;;;;;;5074938;28;20067;-85
2022/06/10 06:46:14;;;;;;;8.73;7.82;;;35.00;41.90;;;;;;5074566;28;20031;-83
2022/06/10 06:48:41;;;;;;;8.57;7.70;;;34.60;43.50;;;;;;5073600;28;20171;-82
2022/06/10 06:51:08;;;;;;;8.32;7.50;;;34.30;42.90;;;;;;5077186;28;20120;-82
2022/06/10 06:53:34;;;;;;;8.80;7.90;;;;;;;;;;5074938;28;20047;-83
2022/06/10 06:56:01;;;;;;;10.85;8.35;;;33.10;43.70;;;;;;5074616;28;20127;-84
2022/06/10 06:58:27;;;;;;;9.85;8.00;;;32.70;46.00;;;;;;5057147;28;20376;-82
2022/06/10 07:00:53;;;;;;;9.63;8.83;;;33.20;45.90;;;;;;5074745;28;20024;-84
2022/06/10 07:03:20;;;;;;;10.32;7.55;;;34.40;43.80;;;;;;5074678;28;20416;-84
2022/06/10 07:05:46;;;;;;;;;;;34.60;42.70;;;;;;5073941;28;20107;-84
2022/06/10 07:08:12;;;;;;;12.80;10.15;;;34.80;43.00;;;;;;5075282;28;20023;-84
2022/06/10 07:10:38;;;;;;;9.20;8.30;;;34.20;42.70;;;;;;5075375;28;20028;-82
2022/06/10 07:13:04;;;;;;;10.02;8.90;;;33.90;43.40;;;;;;5089675;28;20016;-82
2022/06/10 07:15:29;;;;;;;11.67;10.57;;;34.10;43.60;;;;;;5074446;28;20382;-82
2022/06/10 07:17:57;;;;;;;10.70;9.03;;;33.20;44.10;;;;;;5088399;28;20052;-81
2022/06/10 07:20:31;;;;;;;10.38;8.93;;;32.20;46.30;;;;;;5073433;28;20021;-82
2022/06/10 07:22:59;;;;;;;11.55;9.00;;;33.10;46.10;;;;;;5074018;28;20032;-82
2022/06/10 07:25:26;;;;;;;9.52;8.52;;;34.70;44.00;;;;;;5074636;28;20478;-83
2022/06/10 07:27:55;;;;;;;8.90;8.10;;;35.80;41.50;;;;;;5074468;28;20099;-83
2022/06/10 07:30:24;;;;;;;9.55;8.63;;;35.00;41.80;;;;;;5074815;28;20090;-82
2022/06/10 07:32:50;;;;;;;10.50;8.10;;;34.20;43.40;;;;;;5056647;28;20032;-82
2022/06/10 07:35:18;;;;;;;10.50;8.88;;;34.00;43.10;;;;;;5074607;28;20013;-82
2022/06/10 07:37:45;;;;;;;10.48;8.35;;;33.30;44.30;;;;;;5073565;28;20101;-82
2022/06/10 07:41:56;;;;;;;8.80;8.07;;;33.70;43.60;;;;;;5073732;28;20023;-82
2022/06/10 07:43:03;;;;;;;8.75;7.88;;;35.00;41.70;;;;;;5073751;28;20067;-83
2022/06/10 07:45:29;;;;;;;8.93;8.00;;;36.10;39.50;;;;;;5056595;28;20039;-83
2022/06/10 07:47:55;;;;;;;8.30;7.63;;;37.00;38.80;;;;;;5044928;28;20491;-83
2022/06/10 07:50:23;;;;;;;8.85;8.15;;;37.50;37.60;;;;;;5075255;28;20076;-83
2022/06/10 07:52:52;;;;;;;8.52;7.65;;;38.30;37.00;;;;;;5075544;28;20012;-83
2022/06/10 07:55:19;;;;;;;11.85;8.27;;;38.30;36.50;;;;;;5059841;28;20078;-81
2022/06/10 07:57:45;;;;;;;8.00;7.30;;;37.50;36.80;;;;;;5065776;28;20122;-81
2022/06/10 08:00:12;;;;;;;9.20;7.68;;;37.40;37.20;;;;;;5057576;28;20025;-83
2022/06/10 08:02:39;;;;;;;8.40;7.57;;;36.70;37.30;;;;;;5074542;28;20028;-83
2022/06/10 08:05:08;;;;;;;8.85;7.95;;;35.30;38.70;;;;;;5055822;28;20070;-82
2022/06/10 08:07:37;;;;;;;9.50;7.60;;;34.80;40.30;;;;;;5055351;28;20068;-82
2022/06/10 08:10:05;;;;;;;9.52;8.50;;;34.20;40.60;;;;;;5071263;28;20139;-82
2022/06/10 08:12:31;;;;;;;13.82;9.00;;;34.10;40.70;;;;;;5055996;28;20040;-82
2022/06/10 08:14:57;;;;;;;9.55;8.38;;;34.00;40.80;;;;;;5075978;28;20024;-81
2022/06/10 08:17:23;;;;;;;10.17;9.13;;;33.40;41.60;;;;;;5076804;28;20028;-84
2022/06/10 08:19:49;;;;;;;12.85;8.50;;;32.70;56.10;;;;;;5074429;28;20024;-82
2022/06/10 08:22:33;;;;;;;9.60;8.60;;;31.60;44.40;;;;;;5061823;28;20122;-80
2022/06/10 08:25:10;;;;;;;12.27;9.38;;;31.80;45.40;;;;;;5064663;28;20028;-82
2022/06/10 08:27:36;;;;;;;9.60;8.80;;;34.00;43.30;;;;;;5073187;28;20040;-83
2022/06/10 08:30:06;;;;;;;9.38;7.80;;;34.50;40.80;;;;;;5072349;28;20024;-83
2022/06/10 08:32:32;;;;;;;10.18;8.98;;;33.50;41.30;;;;;;5073298;28;20034;-82
2022/06/10 08:34:58;;;;;;;9.07;8.23;;;33.20;43.00;;;;;;5072734;28;20536;-82
2022/06/10 08:37:24;;;;;;;9.83;8.90;;;34.50;41.80;;;;;;5073086;28;20035;-83
2022/06/10 08:39:49;;;;;;;8.53;7.83;;;34.30;40.80;;;;;;5072776;28;20539;-84
2022/06/10 08:42:36;;;;;;;9.50;8.60;;;34.00;41.20;;;;;;5072681;28;20265;-82
2022/06/10 08:45:12;;;;;;;7.80;7.10;;;35.10;40.80;;;;;;5053249;28;20029;-81
2022/06/10 08:48:25;;;;;;;9.07;6.97;;;37.40;38.30;;;;;;5074923;28;20397;-82
2022/06/10 08:51:06;;;;;;;7.05;6.45;;;38.70;35.80;;;;;;4995656;28;20292;-82
2022/06/10 08:53:37;;;;;;;7.18;6.50;;;39.00;34.40;;;;;;4990697;28;20073;-83
2022/06/10 08:56:13;;;;;;;9.68;5.75;;;39.60;33.80;;;;;;4990446;28;20092;-81
2022/06/10 08:59:14;;;;;;;6.05;5.55;;;40.50;33.00;;;;;;4990321;28;20033;-83
2022/06/10 09:01:50;;;;;;;7.63;5.50;;;40.80;32.50;;;;;;4990896;28;20061;-84
2022/06/10 09:04:52;;;;;;;8.35;5.70;;;41.30;31.80;;;;;;4974213;28;20029;-83
2022/06/10 09:07:36;;;;;;;5.47;5.00;;;41.80;31.70;;;;;;4990292;28;20038;-82
2022/06/10 09:10:05;;;;;;;5.88;4.97;;;42.60;30.80;;;;;;4990234;28;20177;-83
2022/06/10 09:13:02;;;;;;;6.35;5.57;;;42.60;30.40;;;;;;4990455;28;20102;-83
2022/06/10 09:15:30;;;;;;;7.35;5.07;;;42.80;30.70;;;;;;4989700;28;20113;-83
2022/06/10 09:18:06;;;;;;;8.30;5.00;;;43.00;29.80;;;;;;4974016;28;20022;-82
2022/06/10 09:20:58;;;;;;;5.57;5.07;;;43.40;30.70;;;;;;4995341;28;20666;-83
2022/06/10 09:23:39;;;;;;;8.30;5.20;;;44.50;29.10;;;;;;5017975;28;20082;-83
2022/06/10 09:26:10;;;;;;;8.05;5.38;;;;;;;;;;5052347;28;20656;-82
2022/06/10 09:28:37;;;;;;;5.75;5.20;;;41.80;51.80;;;;;;5052332;28;20075;-83
2022/06/10 09:31:33;;;;;;;12.80;5.28;;;39.40;31.10;;;;;;5051598;28;20012;-80
2022/06/10 09:34:19;;;;;;;7.63;5.38;;;38.90;31.50;;;;;;5039966;28;20017;-82
2022/06/10 09:37:03;;;;;;;5.10;4.55;;;39.40;31.20;;;;;;5026988;28;20505;-82
2022/06/10 09:42:35;;;;;;;7.07;5.18;;;39.40;30.30;;;;;;5052822;28;20031;-83
2022/06/10 09:45:27;;;;;;;7.03;5.57;;;39.60;30.00;;;;;;5053497;28;20052;-82
2022/06/10 09:48:05;;;;;;;6.50;4.72;;;38.40;31.30;;;;;;5054879;28;20036;-84
2022/06/10 09:51:00;;;;;;;7.35;4.40;;;38.00;32.20;;;;;;5065213;28;20471;-83
2022/06/10 09:54:00;;;;;;;5.10;4.68;;;38.40;31.80;;;;;;5083889;28;20385;-83
2022/06/10 09:56:53;;;;;;;7.90;4.82;;;37.40;31.90;;;;;;5061748;28;20043;-82
2022/06/10 09:59:40;;;;;;;7.93;6.60;;;36.80;33.30;;;;;;5073158;28;20029;-81
2022/06/10 10:02:22;;;;;;;7.28;4.63;;;37.40;33.40;;;;;;5072867;28;20422;-82
2022/06/10 10:05:13;;;;;;;5.70;5.20;;;37.40;32.40;;;;;;5059637;28;20051;-83
2022/06/10 10:08:26;;;;;;;6.25;4.32;;;37.20;32.60;;;;;;5071682;28;20117;-82
2022/06/10 10:11:26;;;;;;;5.40;4.88;;;38.20;32.30;;;;;;5034941;28;20036;-81
2022/06/10 10:14:06;;;;;;;4.90;4.20;;;39.00;31.20;;;;;;5071829;28;20047;-83
2022/06/10 10:16:50;;;;;;;4.85;4.45;;;39.00;30.70;;;;;;5058123;28;20579;-82
2022/06/10 10:19:46;;;;;;;4.93;4.43;;;38.30;30.70;;;;;;5072084;28;20032;-84
2022/06/10 10:22:36;;;;;;;5.05;4.55;;;38.20;30.90;;;;;;5071502;28;20071;-85
2022/06/10 10:25:02;;;;;;;6.15;4.82;;;38.50;31.50;;;;;;5058099;28;20100;-82
2022/06/10 10:27:34;;;;;;;6.40;5.22;;;39.50;30.70;;;;;;5053334;28;20128;-85
2022/06/10 10:30:13;;;;;;;4.68;4.28;;;39.40;30.20;;;;;;5071386;28;20086;-83
2022/06/10 10:32:42;;;;;;;9.55;5.10;;;38.00;30.60;;;;;;5053360;28;20052;-82
2022/06/10 10:35:40;;;;;;;12.15;5.32;;;36.60;31.90;;;;;;5071036;28;20031;-83
2022/06/10 10:38:14;;;;;;;5.60;4.90;;;35.00;33.10;;;;;;5070729;28;20104;-84
2022/06/10 10:40:42;;;;;;;5.80;5.20;;;;;;;;;;5070500;28;20344;-83
2022/06/10 10:43:26;;;;;;;8.70;5.70;;;31.90;36.70;;;;;;5071238;28;20033;-83
2022/06/10 10:46:03;;;;;;;6.20;5.60;;;30.80;38.70;;;;;;5071563;28;20038;-81
2022/06/10 10:48:34;;;;;;;9.82;6.03;;;30.00;39.90;;;;;;5070880;28;20036;-82
2022/06/10 10:51:26;;;;;;;6.88;6.28;;;29.40;40.50;;;;;;5058210;28;20490;-83
2022/06/10 10:53:56;;;;;;;10.70;5.68;;;29.10;41.50;;;;;;5074532;28;20068;-83
2022/06/10 10:56:32;;;;;;;6.53;5.63;;;29.00;42.20;;;;;;5074523;28;20028;-84
2022/06/10 10:58:59;;;;;;;7.15;5.97;;;28.70;41.90;;;;;;5074009;28;20016;-84
2022/06/10 11:01:50;;;;;;;7.60;6.00;;;28.50;42.50;;;;;;5078487;28;20358;-83
2022/06/10 11:04:31;;;;;;;7.03;5.13;;;28.40;42.20;;;;;;5074512;28;20733;-85
2022/06/10 11:07:05;;;;;;;7.80;5.85;;;28.30;42.90;;;;;;5074403;28;20127;-82
2022/06/10 11:09:41;;;;;;;6.28;5.38;;;28.30;43.20;;;;;;5056332;28;20446;-83
2022/06/10 11:12:15;;;;;;;6.43;5.40;;;28.20;42.90;;;;;;5094418;28;20055;-83
2022/06/10 11:14:41;;;;;;;6.18;5.60;;;28.10;42.90;;;;;;5085094;28;20099;-84
2022/06/10 11:17:13;;;;;;;5.97;4.90;;;28.10;43.30;;;;;;5094999;28;20077;-82
2022/06/10 11:20:25;;;;;;;6.05;5.13;;;28.00;42.90;;;;;;5076124;28;20021;-83
2022/06/10 11:23:21;;;;;;;7.15;4.97;;;27.90;42.80;;;;;;5067011;28;20040;-83
2022/06/10 11:26:10;;;;;;;6.68;4.70;;;27.80;43.20;;;;;;5094899;28;20106;-83
2022/06/10 11:28:39;;;;;;;5.55;5.05;;;27.60;42.90;;;;;;5094592;28;20035;-82
2022/06/10 11:31:26;;;;;;;5.38;4.88;;;27.40;43.80;;;;;;5094307;28;20024;-81
2022/06/10 11:33:56;;;;;;;8.82;5.00;;;27.20;43.90;;;;;;5095482;28;20012;-82
2022/06/10 11:36:27;;;;;;;5.47;5.00;;;27.10;44.40;;;;;;5100172;28;20032;-84
2022/06/10 11:39:18;;;;;;;6.40;4.80;;;27.00;44.60;;;;;;5105978;28;20012;-82
2022/06/10 11:42:07;;;;;;;5.93;5.43;;;27.10;44.00;;;;;;5058181;28;20125;-82
2022/06/10 11:44:54;;;;;;;6.60;6.00;;;26.90;44.20;;;;;;5094683;28;20016;-82
2022/06/10 11:47:28;;;;;;;6.18;4.88;;;26.90;44.80;;;;;;5074718;28;20529;-82
2022/06/10 11:50:29;;;;;;;7.15;5.32;;;27.00;45.00;;;;;;5093817;28;20044;-82
2022/06/10 11:52:59;;;;;;;5.35;4.85;;;27.10;44.70;;;;;;5091483;28;20070;-82
2022/06/10 11:55:33;;;;;;;6.03;4.85;;;27.20;44.70;;;;;;5094423;28;20061;-83
2022/06/10 12:01:16;;;;;;;5.38;4.80;;;27.40;44.10;;;;;;5095832;28;20061;-81
2022/06/10 12:03:46;;;;;;;7.17;4.70;;;27.20;44.20;;;;;;5096125;28;20468;-83
2022/06/10 12:06:15;;;;;;;4.70;4.30;;;27.10;44.20;;;;;;5076594;28;20035;-81
2022/06/10 12:08:59;;;;;;;6.72;5.68;;;26.90;44.20;;;;;;5093976;28;20028;-83
2022/06/10 12:11:50;;;;;;;6.70;4.80;;;26.90;44.60;;;;;;5080281;28;20035;-83
2022/06/10 12:14:19;;;;;;;5.47;4.97;;;26.80;44.70;;;;;;5094792;28;20038;-83
2022/06/10 12:17:11;;;;;;;8.45;6.45;;;26.80;45.10;;;;;;5093554;28;20031;-83
2022/06/10 12:19:52;;;;;;;5.78;4.72;;;26.70;45.30;;;;;;5093784;28;20028;-83
2022/06/10 12:22:19;;;;;;;9.05;4.75;;;26.70;45.60;;;;;;5092784;28;20032;-83
2022/06/10 12:24:49;;;;;;;5.90;4.70;;;26.70;45.80;;;;;;5093856;28;20016;-83
2022/06/10 12:27:39;;;;;;;8.50;6.38;;;26.80;45.70;;;;;;5077257;28;20043;-83
2022/06/10 12:30:17;;;;;;;5.75;5.25;;;27.00;45.60;;;;;;5095140;28;20020;-83
2022/06/10 12:32:52;;;;;;;6.88;5.43;;;27.00;45.00;;;;;;5084501;28;20059;-82
2022/06/10 12:35:28;;;;;;;7.97;4.97;;;27.00;45.30;;;;;;5094047;28;20395;-83
2022/06/10 12:38:13;;;;;;;5.63;4.45;;;27.20;45.60;;;;;;5092452;28;20054;-84
2022/06/10 12:40:49;;;;;;;6.43;4.38;;;27.40;45.10;;;;;;5093278;28;20422;-82
2022/06/10 12:43:24;;;;;;;7.80;5.03;;;27.40;44.20;;;;;;5092938;28;20191;-81
2022/06/10 12:45:57;;;;;;;11.05;4.57;;;27.40;44.30;;;;;;5092479;28;20016;-83
2022/06/10 12:48:30;;;;;;;6.00;4.35;;;27.50;44.40;;;;;;5092972;28;20044;-82
2022/06/10 12:51:01;;;;;;;4.70;4.30;;;27.60;44.20;;;;;;5094541;28;20120;-80
2022/06/10 12:53:43;;;;;;;4.72;3.90;;;27.80;43.80;;;;;;5095249;28;20024;-83
2022/06/10 12:56:37;;;;;;;4.68;4.10;;;27.90;43.60;;;;;;5079350;28;20104;-82
2022/06/10 12:59:19;;;;;;;4.50;4.10;;;27.90;43.00;;;;;;5090376;28;20428;-83
2022/06/10 13:01:46;;;;;;;5.95;4.05;;;27.70;42.80;;;;;;5074408;28;20043;-82
2022/06/10 13:04:44;;;;;;;5.97;4.00;;;27.50;42.00;;;;;;5092334;28;20066;-82
2022/06/10 13:07:30;;;;;;;5.78;5.10;;;27.40;42.50;;;;;;5106708;28;20040;-82
2022/06/10 13:10:34;;;;;;;6.47;3.60;;;27.20;43.00;;;;;;5080700;28;20023;-81
2022/06/10 13:13:22;;;;;;;5.25;4.75;;;27.20;43.50;;;;;;5091186;28;20020;-80
2022/06/10 13:15:49;;;;;;;4.80;4.40;;;27.10;43.90;;;;;;5092002;28;20027;-83
2022/06/10 13:18:18;;;;;;;9.50;4.65;;;27.00;44.30;;;;;;5074226;28;20025;-82
2022/06/10 13:20:49;;;;;;;4.57;4.18;;;27.00;44.50;;;;;;5092479;28;20084;-82
2022/06/10 13:23:19;;;;;;;6.15;4.05;;;27.00;44.20;;;;;;5093383;28;20016;-82
2022/06/10 13:25:52;;;;;;;9.82;4.85;;;26.90;43.60;;;;;;5077594;28;20061;-83
2022/06/10 13:28:27;;;;;;;6.43;4.57;;;26.90;44.40;;;;;;5102402;28;20031;-81
2022/06/10 13:31:13;;;;;;;5.47;4.60;;;27.00;44.90;;;;;;5094455;28;20024;-84